Time;durP1;ratioP1;P1;durP2;ratioP2;P2;SDS_P1;SDS_P2;PMS_P1;PMS_P2;Temp;Humidity;BMP_temperature;BMP_pressure;BME280_temperature;BME280_humidity;BME280_pressure;Samples;Min_cycle;Max_cycle;Signal;HPM_P1;HPM_P2
2021/01/08 00:00:16;;;;;;;24.77;12.30;;;1.30;99.90;;;;;;5147341;27;20199;-83
2021/01/08 00:02:42;;;;;;;18.63;12.40;;;1.30;99.90;;;;;;5114164;28;20416;-85
2021/01/08 00:05:09;;;;;;;17.57;8.23;;;1.20;99.90;;;;;;5113047;28;20511;-85
2021/01/08 00:07:35;;;;;;;13.10;10.70;;;1.10;99.90;;;;;;5147094;27;20277;-85
2021/01/08 00:10:03;;;;;;;7.10;6.37;;;0.90;99.90;;;;;;5112753;28;20412;-84
2021/01/08 00:12:29;;;;;;;12.37;9.03;;;0.90;99.90;;;;;;5112576;28;20431;-84
2021/01/08 00:14:55;;;;;;;12.60;8.57;;;1.20;99.90;;;;;;5112851;28;20963;-83
2021/01/08 00:17:21;;;;;;;9.30;7.07;;;0.70;99.90;;;;;;5112832;28;20510;-84
2021/01/08 00:19:48;;;;;;;14.57;8.93;;;1.10;99.90;;;;;;5112600;28;20182;-84
2021/01/08 00:22:14;;;;;;;9.70;7.83;;;0.80;99.90;;;;;;5112767;28;20644;-84
2021/01/08 00:24:40;;;;;;;10.40;7.07;;;0.80;99.90;;;;;;5112700;28;20418;-84
2021/01/08 00:27:05;;;;;;;8.60;6.77;;;0.70;99.90;;;;;;5112481;28;20217;-83
2021/01/08 00:29:31;;;;;;;6.17;4.57;;;0.80;99.90;;;;;;5113855;28;20185;-84
2021/01/08 00:31:56;;;;;;;5.87;4.10;;;1.00;99.90;;;;;;5113852;28;20212;-85
2021/01/08 00:34:22;;;;;;;3.67;2.87;;;1.10;99.90;;;;;;5112629;28;20170;-84
2021/01/08 00:36:54;;;;;;;8.63;4.77;;;0.70;99.90;;;;;;5112888;28;20580;-84
2021/01/08 00:39:21;;;;;;;6.70;4.33;;;0.60;99.90;;;;;;5113360;28;20239;-83
2021/01/08 00:41:47;;;;;;;8.67;4.20;;;1.00;99.90;;;;;;5113451;28;20929;-84
2021/01/08 00:44:13;;;;;;;8.57;5.53;;;0.60;99.90;;;;;;5113048;28;20462;-84
2021/01/08 00:46:40;;;;;;;4.93;3.90;;;0.40;99.90;;;;;;5112706;28;20415;-84
2021/01/08 00:49:07;;;;;;;7.37;6.50;;;0.40;99.90;;;;;;5113861;28;20645;-84
2021/01/08 00:51:33;;;;;;;11.23;9.30;;;0.50;99.90;;;;;;5113049;28;20470;-84
2021/01/08 00:53:59;;;;;;;9.57;6.90;;;0.50;99.90;;;;;;5112638;28;20411;-84
2021/01/08 00:56:25;;;;;;;8.97;5.57;;;0.40;99.90;;;;;;5112500;28;20925;-83
2021/01/08 00:58:51;;;;;;;6.77;4.60;;;0.50;99.90;;;;;;5113123;28;20468;-83
2021/01/08 01:01:17;;;;;;;11.10;7.53;;;1.10;99.90;;;;;;5112863;28;20455;-83
2021/01/08 01:03:43;;;;;;;14.17;7.53;;;0.80;99.90;;;;;;5113145;28;20419;-84
2021/01/08 01:06:09;;;;;;;8.50;6.77;;;0.50;99.90;;;;;;5113654;28;20997;-84
2021/01/08 01:08:34;;;;;;;11.47;8.60;;;0.30;99.90;;;;;;5112448;28;20625;-84
2021/01/08 01:11:00;;;;;;;14.43;9.27;;;0.40;99.90;;;;;;5112773;28;20296;-84
2021/01/08 01:13:27;;;;;;;8.17;2.53;;;0.30;99.90;;;;;;5112328;28;20224;-85
2021/01/08 01:15:53;;;;;;;7.53;4.70;;;0.40;99.90;;;;;;5112509;28;20649;-84
2021/01/08 01:18:19;;;;;;;8.23;5.97;;;0.30;99.90;;;;;;5112130;28;20431;-84
2021/01/08 01:20:45;;;;;;;13.20;6.97;;;0.20;99.90;;;;;;5112161;28;20495;-84
2021/01/08 01:23:11;;;;;;;15.53;7.70;;;0.30;99.90;;;;;;5112030;28;20423;-84
2021/01/08 01:25:36;;;;;;;14.13;7.13;;;0.20;99.90;;;;;;5111872;28;20415;-83
2021/01/08 01:28:02;;;;;;;8.60;5.10;;;0.10;99.90;;;;;;5112454;28;20590;-84
2021/01/08 01:30:28;;;;;;;13.40;7.30;;;0.70;99.90;;;;;;5117010;28;20202;-84
2021/01/08 01:32:53;;;;;;;10.00;7.00;;;0.20;99.90;;;;;;5116141;28;20231;-85
2021/01/08 01:35:19;;;;;;;16.57;8.10;;;0.10;99.90;;;;;;5115803;28;20199;-83
2021/01/08 01:37:45;;;;;;;16.30;9.03;;;0.10;99.90;;;;;;5115548;28;20182;-84
2021/01/08 01:40:11;;;;;;;12.50;6.80;;;0.10;99.90;;;;;;5115648;28;20205;-84
2021/01/08 01:42:36;;;;;;;9.17;7.17;;;0.20;99.90;;;;;;5150085;27;20174;-84
2021/01/08 01:45:03;;;;;;;12.23;6.70;;;0.50;99.90;;;;;;5115560;28;20431;-83
2021/01/08 01:47:29;;;;;;;8.77;5.70;;;0.50;99.90;;;;;;5115384;28;20247;-84
2021/01/08 01:49:54;;;;;;;9.13;5.97;;;0.60;99.90;;;;;;5115570;28;20914;-84
2021/01/08 01:52:20;;;;;;;14.33;9.07;;;0.20;99.90;;;;;;5115114;28;20471;-83
2021/01/08 01:54:46;;;;;;;7.07;5.00;;;0.40;99.90;;;;;;5115342;28;20231;-84
2021/01/08 01:57:11;;;;;;;10.50;4.77;;;-0.10;99.90;;;;;;5115304;28;20174;-84
2021/01/08 01:59:37;;;;;;;14.37;7.87;;;0.00;99.90;;;;;;5115510;28;20209;-83
2021/01/08 02:02:07;;;;;;;10.10;7.73;;;0.10;99.90;;;;;;5115102;28;20218;-85
2021/01/08 02:04:34;;;;;;;13.23;7.70;;;0.10;99.90;;;;;;5115195;28;20174;-83
2021/01/08 02:07:01;;;;;;;10.73;6.70;;;0.40;99.90;;;;;;5115077;28;20442;-83
2021/01/08 02:09:27;;;;;;;9.57;7.57;;;0.10;99.90;;;;;;5115278;28;20420;-84
2021/01/08 02:11:55;;;;;;;8.93;6.73;;;0.60;99.90;;;;;;5115116;28;20462;-84
2021/01/08 02:14:28;;;;;;;12.60;8.27;;;0.10;99.90;;;;;;5114902;28;20922;-84
2021/01/08 02:16:56;;;;;;;11.33;7.43;;;0.30;99.90;;;;;;5115020;28;20412;-84
2021/01/08 02:19:31;;;;;;;11.10;8.63;;;0.20;99.90;;;;;;5114701;28;20424;-84
2021/01/08 02:22:12;;;;;;;10.30;7.50;;;0.60;99.90;;;;;;5115849;28;20495;-84
2021/01/08 02:24:47;;;;;;;10.83;7.37;;;0.40;99.90;;;;;;5114607;28;20487;-83
2021/01/08 02:27:13;;;;;;;12.60;8.10;;;0.80;99.90;;;;;;5114564;28;21008;-84
2021/01/08 02:29:40;;;;;;;9.43;7.30;;;0.60;99.90;;;;;;5114665;28;20415;-83
2021/01/08 02:32:06;;;;;;;10.97;7.23;;;0.40;99.90;;;;;;5115730;28;20285;-84
2021/01/08 02:34:33;;;;;;;10.37;7.33;;;0.70;99.90;;;;;;5115903;28;20436;-84
2021/01/08 02:36:59;;;;;;;11.47;7.40;;;0.80;99.90;;;;;;5114950;28;20177;-84
2021/01/08 02:39:25;;;;;;;13.30;7.13;;;0.70;99.90;;;;;;5115148;28;20477;-84
2021/01/08 02:41:53;;;;;;;8.13;5.63;;;0.30;99.90;;;;;;5113967;28;20420;-84
2021/01/08 02:44:20;;;;;;;10.23;7.30;;;0.70;99.90;;;;;;5114234;28;20492;-84
2021/01/08 02:46:46;;;;;;;8.80;7.00;;;0.70;99.90;;;;;;5114245;28;20416;-83
2021/01/08 02:49:12;;;;;;;8.23;6.00;;;0.60;99.90;;;;;;5114408;28;20457;-84
2021/01/08 02:51:39;;;;;;;9.60;7.10;;;0.50;99.90;;;;;;5114055;28;20570;-84
2021/01/08 02:54:07;;;;;;;10.40;7.23;;;0.50;99.90;;;;;;5114283;28;20178;-84
2021/01/08 02:56:44;;;;;;;7.90;6.47;;;0.20;99.90;;;;;;5114108;28;20506;-84
2021/01/08 02:59:10;;;;;;;8.77;6.10;;;0.20;99.90;;;;;;5114489;28;20431;-84
2021/01/08 03:01:37;;;;;;;7.57;5.77;;;0.20;99.90;;;;;;5113957;28;20445;-84
2021/01/08 03:04:03;;;;;;;9.17;5.37;;;0.20;99.90;;;;;;5114240;28;20420;-84
2021/01/08 03:06:30;;;;;;;6.87;5.37;;;0.60;99.90;;;;;;5113885;28;20475;-84
2021/01/08 03:08:56;;;;;;;6.30;5.67;;;0.60;99.90;;;;;;5113698;28;20426;-84
2021/01/08 03:11:22;;;;;;;8.33;6.50;;;0.60;99.90;;;;;;5113917;28;20552;-84
2021/01/08 03:13:49;;;;;;;7.00;5.57;;;0.60;99.90;;;;;;5115445;28;20404;-84
2021/01/08 03:16:15;;;;;;;9.63;5.30;;;0.60;99.90;;;;;;5114799;28;20419;-84
2021/01/08 03:18:41;;;;;;;5.20;4.13;;;0.60;99.90;;;;;;5148542;27;20416;-84
2021/01/08 03:21:06;;;;;;;6.57;5.57;;;0.70;99.90;;;;;;5113604;28;20514;-84
2021/01/08 03:23:32;;;;;;;9.73;6.03;;;0.20;99.90;;;;;;5114685;28;20174;-81
2021/01/08 03:25:59;;;;;;;6.80;5.47;;;0.70;99.90;;;;;;5116033;28;20214;-85
2021/01/08 03:28:25;;;;;;;7.67;5.50;;;0.40;99.90;;;;;;5114002;28;20238;-84
2021/01/08 03:30:50;;;;;;;29.00;15.07;;;0.70;99.90;;;;;;5113615;28;20479;-83
2021/01/08 03:33:16;;;;;;;10.07;6.50;;;0.60;99.90;;;;;;5113831;28;20177;-82
2021/01/08 03:35:42;;;;;;;11.37;6.90;;;0.30;99.90;;;;;;5113329;28;20205;-82
2021/01/08 03:38:07;;;;;;;8.47;6.37;;;0.10;99.90;;;;;;5113638;28;20184;-79
2021/01/08 03:40:35;;;;;;;6.80;5.30;;;0.20;99.90;;;;;;5147475;27;20272;-82
2021/01/08 03:43:01;;;;;;;7.73;6.17;;;0.70;99.90;;;;;;5113494;28;20181;-82
2021/01/08 03:45:27;;;;;;;7.47;5.63;;;0.70;99.90;;;;;;5113065;28;20954;-81
2021/01/08 03:47:52;;;;;;;7.67;5.63;;;0.30;99.90;;;;;;5113250;28;20182;-82
2021/01/08 03:50:18;;;;;;;7.03;5.50;;;0.70;99.90;;;;;;5113257;28;20595;-81
2021/01/08 03:52:43;;;;;;;6.13;4.87;;;0.30;99.90;;;;;;5112998;28;20186;-82
2021/01/08 03:55:09;;;;;;;8.50;5.20;;;0.60;99.90;;;;;;5113097;28;20170;-83
2021/01/08 03:57:35;;;;;;;9.13;6.20;;;0.60;99.90;;;;;;5112958;28;20180;-82
2021/01/08 04:00:01;;;;;;;9.00;6.60;;;0.30;99.90;;;;;;5113577;28;20938;-82
2021/01/08 04:02:29;;;;;;;7.30;6.17;;;0.70;99.90;;;;;;5114260;28;20671;-82
2021/01/08 04:04:55;;;;;;;5.77;5.23;;;0.70;99.90;;;;;;5114263;28;20455;-82
2021/01/08 04:07:20;;;;;;;5.93;5.33;;;0.60;99.90;;;;;;5114197;28;20411;-82
2021/01/08 04:09:46;;;;;;;11.07;5.40;;;0.60;99.90;;;;;;5114305;28;20676;-81
2021/01/08 04:12:13;;;;;;;9.70;6.23;;;0.40;99.90;;;;;;5112886;28;20217;-83
2021/01/08 04:14:38;;;;;;;6.57;5.87;;;0.70;99.90;;;;;;5114254;28;20549;-82
2021/01/08 04:17:04;;;;;;;9.70;5.30;;;0.70;99.90;;;;;;5112771;28;20430;-82
2021/01/08 04:19:29;;;;;;;6.43;5.50;;;0.30;99.90;;;;;;5113006;28;20174;-82
2021/01/08 04:21:55;;;;;;;7.50;6.13;;;0.70;99.90;;;;;;5112728;28;20181;-82
2021/01/08 04:24:21;;;;;;;7.90;5.93;;;0.70;99.90;;;;;;5112886;28;20173;-81
2021/01/08 04:26:46;;;;;;;7.77;5.60;;;0.80;99.90;;;;;;5112616;28;20229;-83
2021/01/08 04:29:12;;;;;;;7.43;5.53;;;0.70;99.90;;;;;;5112792;28;20640;-82
2021/01/08 04:31:37;;;;;;;8.10;6.00;;;0.60;99.90;;;;;;5112649;28;20757;-82
2021/01/08 04:34:04;;;;;;;7.17;5.77;;;0.80;99.90;;;;;;5112646;28;20188;-82
2021/01/08 04:36:30;;;;;;;7.57;5.17;;;0.80;99.90;;;;;;5112698;28;20647;-82
2021/01/08 04:38:55;;;;;;;7.50;5.70;;;0.10;99.90;;;;;;5112697;28;20412;-82
2021/01/08 04:41:22;;;;;;;9.40;6.23;;;0.20;99.90;;;;;;5112788;28;20519;-82
2021/01/08 04:43:47;;;;;;;6.97;5.63;;;0.30;99.90;;;;;;5112692;28;20174;-82
2021/01/08 04:46:25;;;;;;;7.83;5.40;;;0.40;99.90;;;;;;5113693;28;20921;-82
2021/01/08 04:48:57;;;;;;;8.20;5.10;;;0.80;99.90;;;;;;5112458;28;20184;-85
2021/01/08 04:51:24;;;;;;;6.27;5.27;;;0.50;99.90;;;;;;5114156;28;20531;-83
2021/01/08 04:53:51;;;;;;;7.47;5.00;;;0.70;99.90;;;;;;5114401;28;20473;-83
2021/01/08 04:56:19;;;;;;;9.00;6.07;;;0.40;99.90;;;;;;5114081;28;20976;-84
2021/01/08 04:58:45;;;;;;;5.10;4.60;;;0.60;99.90;;;;;;5112470;28;20911;-83
2021/01/08 05:01:11;;;;;;;5.87;4.90;;;0.80;99.90;;;;;;5112892;28;20428;-84
2021/01/08 05:03:37;;;;;;;7.10;5.73;;;0.80;99.90;;;;;;5113873;28;20488;-83
2021/01/08 05:06:03;;;;;;;6.13;4.37;;;0.30;99.90;;;;;;5116425;28;20178;-84
2021/01/08 05:08:28;;;;;;;7.40;6.07;;;1.00;99.90;;;;;;5116217;28;20246;-83
2021/01/08 05:10:56;;;;;;;8.20;5.67;;;0.60;99.90;;;;;;5116313;28;20451;-83
2021/01/08 05:13:31;;;;;;;6.47;4.87;;;0.40;99.90;;;;;;5116027;28;20177;-84
2021/01/08 05:16:01;;;;;;;5.60;4.67;;;0.80;99.90;;;;;;5116211;28;20973;-84
2021/01/08 05:18:29;;;;;;;6.63;5.43;;;0.50;99.90;;;;;;5116041;28;20929;-83
2021/01/08 05:20:55;;;;;;;5.17;4.50;;;0.80;99.90;;;;;;5115886;28;20415;-84
2021/01/08 05:23:22;;;;;;;8.10;5.17;;;0.40;99.90;;;;;;5116071;28;20426;-83
2021/01/08 05:25:49;;;;;;;6.63;4.70;;;0.80;99.90;;;;;;5116141;28;20965;-83
2021/01/08 05:28:16;;;;;;;9.10;5.13;;;0.80;99.90;;;;;;5116363;28;20442;-81
2021/01/08 05:30:42;;;;;;;6.43;4.60;;;0.80;99.90;;;;;;5115862;28;20477;-83
2021/01/08 05:33:11;;;;;;;6.13;5.47;;;0.50;99.90;;;;;;5115684;28;20518;-84
2021/01/08 05:35:37;;;;;;;7.37;4.90;;;0.70;99.90;;;;;;5116593;28;20179;-84
2021/01/08 05:38:05;;;;;;;7.00;6.30;;;0.80;99.90;;;;;;5116749;28;20446;-84
2021/01/08 05:40:32;;;;;;;6.20;5.10;;;0.40;99.90;;;;;;5118350;28;20605;-84
2021/01/08 05:43:02;;;;;;;6.43;5.30;;;0.40;99.90;;;;;;5116628;28;20412;-83
2021/01/08 05:45:30;;;;;;;6.57;5.17;;;0.40;99.90;;;;;;5116129;28;20448;-84
2021/01/08 05:48:01;;;;;;;5.43;4.73;;;0.90;99.90;;;;;;5115661;28;20783;-84
2021/01/08 05:50:28;;;;;;;7.57;5.73;;;0.70;99.90;;;;;;5149849;27;20455;-84
2021/01/08 05:53:00;;;;;;;6.43;5.40;;;0.40;99.90;;;;;;5115889;28;20507;-84
2021/01/08 05:55:27;;;;;;;5.83;4.73;;;0.80;99.90;;;;;;5115684;28;20415;-83
2021/01/08 05:57:54;;;;;;;6.17;4.93;;;0.80;99.90;;;;;;5115211;28;20828;-84
2021/01/08 06:00:20;;;;;;;7.63;6.10;;;0.50;99.90;;;;;;5115405;28;20407;-83
2021/01/08 06:02:49;;;;;;;5.87;5.10;;;0.90;99.90;;;;;;5115467;28;20774;-82
2021/01/08 06:05:16;;;;;;;6.50;4.73;;;0.90;99.90;;;;;;5114982;28;20774;-82
2021/01/08 06:07:46;;;;;;;4.50;4.07;;;0.60;99.90;;;;;;5115227;28;20466;-83
2021/01/08 06:10:15;;;;;;;8.50;4.80;;;0.40;99.90;;;;;;5115278;28;20770;-83
2021/01/08 06:12:42;;;;;;;5.00;4.37;;;0.80;99.90;;;;;;5115231;28;20434;-83
2021/01/08 06:15:11;;;;;;;5.30;4.73;;;0.90;99.90;;;;;;5115237;28;21071;-84
2021/01/08 06:17:38;;;;;;;6.10;4.60;;;1.10;99.90;;;;;;5116237;28;20424;-85
2021/01/08 06:20:07;;;;;;;5.90;4.80;;;1.10;99.90;;;;;;5149949;27;20748;-88
2021/01/08 06:22:39;;;;;;;8.20;5.77;;;1.10;99.90;;;;;;5115829;28;20416;-84
2021/01/08 06:25:06;;;;;;;7.43;6.20;;;1.10;99.90;;;;;;5115708;28;20461;-84
2021/01/08 06:27:33;;;;;;;16.10;14.20;;;0.90;99.90;;;;;;5114767;27;20566;-83
2021/01/08 06:30:04;;;;;;;7.63;6.23;;;0.90;99.90;;;;;;5114732;28;20442;-84
2021/01/08 06:32:31;;;;;;;8.17;6.67;;;1.00;99.90;;;;;;5114992;28;20494;-85
2021/01/08 06:35:06;;;;;;;8.87;6.40;;;0.60;99.90;;;;;;5114520;28;20412;-83
2021/01/08 06:37:40;;;;;;;6.50;5.27;;;1.20;99.90;;;;;;5116017;28;20510;-84
2021/01/08 06:40:08;;;;;;;5.70;4.80;;;0.90;99.90;;;;;;5109917;28;20415;-85
2021/01/08 06:42:43;;;;;;;5.13;4.53;;;1.20;99.90;;;;;;5113583;28;20507;-83
2021/01/08 06:45:13;;;;;;;5.83;4.80;;;1.00;99.90;;;;;;5113886;27;20446;-84
2021/01/08 06:47:43;;;;;;;4.43;4.03;;;1.00;99.90;;;;;;5113752;28;20452;-85
2021/01/08 06:50:17;;;;;;;4.40;4.00;;;1.00;99.90;;;;;;5113342;28;20426;-84
2021/01/08 06:52:45;;;;;;;6.40;4.90;;;0.60;99.90;;;;;;5112798;27;20430;-83
2021/01/08 06:55:16;;;;;;;4.67;4.23;;;1.10;99.90;;;;;;5118296;27;20846;-85
2021/01/08 06:57:55;;;;;;;6.33;4.87;;;1.20;99.90;;;;;;5114839;27;20508;-85
2021/01/08 07:00:25;;;;;;;5.23;4.40;;;0.60;99.90;;;;;;5134056;27;20517;-81
2021/01/08 07:02:54;;;;;;;10.67;5.30;;;1.00;99.90;;;;;;5134035;27;20430;-82
2021/01/08 07:05:20;;;;;;;6.10;5.10;;;0.70;99.90;;;;;;5132438;27;20952;-82
2021/01/08 07:07:47;;;;;;;5.43;4.20;;;1.00;99.90;;;;;;5134811;27;20423;-83
2021/01/08 07:10:18;;;;;;;5.40;4.87;;;0.60;99.90;;;;;;5133266;27;20471;-82
2021/01/08 07:12:44;;;;;;;4.60;3.70;;;1.00;99.90;;;;;;5133148;27;20430;-82
2021/01/08 07:15:13;;;;;;;6.10;3.70;;;0.60;99.90;;;;;;5134274;27;20421;-83
2021/01/08 07:17:40;;;;;;;10.40;4.10;;;1.10;99.90;;;;;;5134602;27;20186;-82
2021/01/08 07:20:08;;;;;;;4.20;3.07;;;0.50;99.90;;;;;;5134026;27;20422;-83
2021/01/08 07:22:37;;;;;;;5.03;4.57;;;1.10;99.90;;;;;;5128246;27;20954;-84
2021/01/08 07:25:05;;;;;;;3.23;2.87;;;0.90;99.90;;;;;;5114516;28;20412;-83
2021/01/08 07:27:32;;;;;;;4.07;3.53;;;1.00;99.90;;;;;;5112071;28;20503;-85
2021/01/08 07:30:05;;;;;;;3.83;3.50;;;0.70;99.90;;;;;;5113864;28;20412;-81
2021/01/08 07:32:45;;;;;;;4.10;3.70;;;0.90;99.90;;;;;;5113568;28;20475;-85
2021/01/08 07:35:20;;;;;;;3.67;2.87;;;1.00;99.90;;;;;;5112600;28;20590;-84
2021/01/08 07:37:56;;;;;;;4.67;3.63;;;1.20;99.90;;;;;;5113074;28;20419;-84
2021/01/08 07:40:22;;;;;;;4.90;3.87;;;1.10;99.90;;;;;;5113368;28;20435;-86
2021/01/08 07:43:11;;;;;;;4.80;4.07;;;0.60;99.90;;;;;;5116177;28;20432;-83
2021/01/08 07:45:51;;;;;;;4.63;3.93;;;1.20;99.90;;;;;;5114029;28;20412;-84
2021/01/08 07:48:41;;;;;;;3.63;3.30;;;0.60;99.90;;;;;;5113131;28;20985;-84
2021/01/08 07:51:08;;;;;;;3.90;3.27;;;1.10;99.90;;;;;;5113882;28;20807;-84
2021/01/08 07:53:44;;;;;;;4.50;4.10;;;1.30;99.90;;;;;;5113765;28;20444;-84
2021/01/08 07:56:18;;;;;;;3.93;3.37;;;0.60;99.90;;;;;;5112908;28;20423;-81
2021/01/08 07:58:54;;;;;;;4.73;3.67;;;1.30;99.90;;;;;;5115496;28;20419;-83
2021/01/08 08:01:20;;;;;;;3.10;2.80;;;1.20;99.90;;;;;;5114916;28;20415;-75
2021/01/08 08:03:45;;;;;;;4.00;3.40;;;1.30;99.90;;;;;;5113340;28;20407;-82
2021/01/08 08:06:11;;;;;;;4.70;3.43;;;0.70;99.90;;;;;;5114007;28;20526;-84
2021/01/08 08:08:42;;;;;;;4.67;3.07;;;0.80;99.90;;;;;;5116519;28;20226;-84
2021/01/08 08:11:08;;;;;;;6.43;4.07;;;0.90;99.90;;;;;;5114207;28;20213;-82
2021/01/08 08:13:35;;;;;;;3.83;2.57;;;0.80;99.90;;;;;;5113666;28;20412;-82
2021/01/08 08:16:00;;;;;;;8.07;5.40;;;0.80;99.90;;;;;;5114298;28;20479;-84
2021/01/08 08:18:26;;;;;;;2.60;2.03;;;1.30;99.90;;;;;;5112965;28;20453;-82
2021/01/08 08:21:11;;;;;;;5.40;4.20;;;0.80;99.90;;;;;;5114058;28;20261;-83
2021/01/08 08:23:37;;;;;;;4.20;3.27;;;1.30;99.90;;;;;;5113089;28;20271;-86
2021/01/08 08:26:04;;;;;;;4.23;3.83;;;1.00;99.90;;;;;;5112924;28;20443;-82
2021/01/08 08:28:30;;;;;;;4.30;3.57;;;0.90;99.90;;;;;;5113203;28;20413;-84
2021/01/08 08:30:56;;;;;;;9.90;5.50;;;0.80;99.90;;;;;;5113186;28;20537;-82
2021/01/08 08:33:22;;;;;;;5.90;4.93;;;0.70;99.90;;;;;;5113082;28;20174;-81
2021/01/08 08:35:49;;;;;;;8.50;7.40;;;1.10;99.90;;;;;;5113015;28;20420;-83
2021/01/08 08:38:15;;;;;;;7.67;6.93;;;1.20;99.90;;;;;;5115707;28;20412;-86
2021/01/08 08:40:41;;;;;;;4.17;2.50;;;1.10;99.90;;;;;;5117356;28;20821;-83
2021/01/08 08:43:07;;;;;;;6.90;5.40;;;0.80;99.90;;;;;;5118892;28;20964;-83
2021/01/08 08:45:34;;;;;;;3.27;3.07;;;1.20;99.90;;;;;;5117864;28;20593;-83
2021/01/08 08:48:07;;;;;;;4.03;3.47;;;0.80;99.90;;;;;;5119219;28;20420;-83
2021/01/08 08:50:34;;;;;;;5.40;4.17;;;0.80;99.90;;;;;;5122421;28;20420;-83
2021/01/08 08:53:13;;;;;;;2.83;2.60;;;1.00;99.90;;;;;;5118564;28;20957;-83
2021/01/08 08:55:38;;;;;;;6.33;4.20;;;1.20;99.90;;;;;;5118690;28;20443;-84
2021/01/08 08:58:10;;;;;;;4.83;3.80;;;1.40;99.90;;;;;;5117399;28;20428;-83
2021/01/08 09:00:43;;;;;;;4.63;4.20;;;1.20;99.90;;;;;;5117184;28;20178;-84
2021/01/08 09:03:22;;;;;;;4.60;4.20;;;1.30;99.90;;;;;;5117320;28;20428;-83
2021/01/08 09:05:49;;;;;;;3.80;3.00;;;1.20;99.90;;;;;;5116584;28;20787;-84
2021/01/08 09:08:36;;;;;;;7.40;5.27;;;1.20;99.90;;;;;;5117594;28;20820;-84
2021/01/08 09:11:29;;;;;;;8.50;7.80;;;1.30;99.90;;;;;;5116536;28;20490;-83
2021/01/08 09:14:10;;;;;;;6.40;5.37;;;0.90;99.90;;;;;;5116741;28;20945;-83
2021/01/08 09:17:14;;;;;;;7.37;4.47;;;1.40;99.90;;;;;;5116597;28;21047;-84
2021/01/08 09:19:53;;;;;;;3.47;3.00;;;1.40;99.90;;;;;;5109194;28;20467;-84
2021/01/08 09:22:19;;;;;;;7.13;5.00;;;1.40;99.90;;;;;;5116762;28;20897;-85
2021/01/08 09:24:48;;;;;;;7.30;4.57;;;1.30;99.90;;;;;;5117164;28;20408;-84
2021/01/08 09:27:14;;;;;;;5.63;4.77;;;1.60;99.90;;;;;;5116158;28;20506;-84
2021/01/08 09:29:40;;;;;;;3.33;3.03;;;1.30;99.90;;;;;;5115772;28;20407;-84
2021/01/08 09:32:07;;;;;;;5.20;4.30;;;1.10;99.90;;;;;;5115754;28;20463;-85
2021/01/08 09:34:34;;;;;;;6.13;5.53;;;1.70;99.90;;;;;;5119004;28;20172;-83
2021/01/08 09:37:12;;;;;;;5.53;4.30;;;1.80;99.90;;;;;;5115617;28;20411;-84
2021/01/08 09:39:41;;;;;;;4.40;4.00;;;1.50;99.90;;;;;;5116918;28;20407;-84
2021/01/08 09:42:06;;;;;;;7.10;3.63;;;1.50;99.90;;;;;;5117143;28;20838;-85
2021/01/08 09:44:37;;;;;;;4.77;3.93;;;1.80;99.90;;;;;;5117359;28;20399;-83
2021/01/08 09:47:08;;;;;;;3.10;2.80;;;2.20;99.90;;;;;;5116523;28;20205;-87
2021/01/08 09:49:52;;;;;;;6.50;4.87;;;1.50;99.90;;;;;;5116466;28;20423;-84
2021/01/08 09:52:18;;;;;;;6.10;5.60;;;2.10;99.90;;;;;;5115421;28;20973;-81
2021/01/08 09:54:47;;;;;;;5.00;4.10;;;2.30;99.90;;;;;;5117459;28;20424;-82
2021/01/08 09:57:33;;;;;;;3.53;3.23;;;2.10;99.90;;;;;;5115687;28;20201;-83
2021/01/08 10:00:09;;;;;;;7.23;4.23;;;2.30;99.90;;;;;;5116808;28;20414;-82
2021/01/08 10:02:40;;;;;;;4.93;4.43;;;1.70;99.90;;;;;;5108656;28;20412;-84
2021/01/08 10:05:24;;;;;;;3.37;3.07;;;1.60;99.90;;;;;;5115839;28;20422;-84
2021/01/08 10:07:51;;;;;;;2.87;2.67;;;2.00;99.90;;;;;;5115584;28;20454;-85
2021/01/08 10:10:42;;;;;;;4.63;4.10;;;1.90;99.90;;;;;;5115383;28;20419;-84
2021/01/08 10:13:18;;;;;;;4.27;3.87;;;1.80;99.90;;;;;;5116630;28;20447;-79
2021/01/08 10:15:51;;;;;;;3.70;3.40;;;1.30;99.90;;;;;;5119989;28;20399;-84
2021/01/08 10:18:23;;;;;;;7.70;6.53;;;2.00;99.90;;;;;;5119573;28;20416;-85
2021/01/08 10:20:53;;;;;;;5.40;3.43;;;1.90;99.90;;;;;;5119999;28;20415;-84
2021/01/08 10:23:25;;;;;;;3.87;3.53;;;1.40;99.90;;;;;;5119478;28;20442;-84
2021/01/08 10:25:52;;;;;;;5.10;4.60;;;1.20;99.90;;;;;;5114752;28;21636;-83
2021/01/08 10:28:19;;;;;;;3.20;2.87;;;1.30;99.90;;;;;;5115045;28;20459;-85
2021/01/08 10:30:47;;;;;;;5.10;4.60;;;1.60;99.90;;;;;;5115077;28;20467;-85
2021/01/08 10:33:13;;;;;;;10.97;4.80;;;1.20;99.90;;;;;;5118737;28;20420;-85
2021/01/08 10:35:45;;;;;;;7.30;5.27;;;1.60;99.90;;;;;;5113924;28;20590;-84
2021/01/08 10:38:10;;;;;;;5.87;4.07;;;1.40;99.90;;;;;;5116245;28;20193;-84
2021/01/08 10:40:36;;;;;;;6.50;5.00;;;1.40;99.90;;;;;;5114855;28;20420;-84
2021/01/08 10:43:01;;;;;;;4.40;2.93;;;1.10;99.90;;;;;;5117462;28;20529;-83
2021/01/08 10:45:27;;;;;;;5.17;4.70;;;1.30;99.90;;;;;;5114280;28;20256;-84
2021/01/08 10:47:53;;;;;;;5.23;4.73;;;1.80;99.90;;;;;;5114999;28;20180;-85
2021/01/08 10:50:18;;;;;;;5.00;4.23;;;1.80;99.90;;;;;;5116556;28;20273;-84
2021/01/08 10:52:44;;;;;;;5.07;4.57;;;1.60;99.90;;;;;;5116677;28;20222;-84
2021/01/08 10:55:11;;;;;;;7.47;5.30;;;1.80;99.90;;;;;;5115887;28;20215;-83
2021/01/08 10:57:38;;;;;;;6.50;4.93;;;1.70;99.90;;;;;;5115630;28;20506;-86
2021/01/08 11:00:08;;;;;;;7.67;5.53;;;1.20;99.90;;;;;;5115088;28;20430;-84
2021/01/08 11:02:35;;;;;;;5.77;4.67;;;1.50;99.90;;;;;;5113474;28;20424;-84
2021/01/08 11:05:02;;;;;;;6.17;2.77;;;1.50;99.90;;;;;;5114155;28;20426;-85
2021/01/08 11:07:27;;;;;;;3.20;2.40;;;1.40;99.90;;;;;;5114325;28;20458;-83
2021/01/08 11:09:53;;;;;;;5.90;5.30;;;1.70;99.90;;;;;;5114212;28;20500;-84
2021/01/08 11:12:19;;;;;;;4.63;4.13;;;1.00;99.90;;;;;;5114191;28;20213;-84
2021/01/08 11:14:44;;;;;;;5.47;4.20;;;1.40;99.90;;;;;;5113506;28;20173;-84
2021/01/08 11:17:10;;;;;;;6.73;4.20;;;1.20;99.90;;;;;;5112980;28;20181;-84
2021/01/08 11:19:36;;;;;;;5.20;4.70;;;1.60;99.90;;;;;;5114562;28;20260;-82
2021/01/08 11:22:02;;;;;;;4.10;2.47;;;1.30;99.90;;;;;;5113582;28;20227;-85
2021/01/08 11:24:27;;;;;;;7.03;5.70;;;2.00;99.90;;;;;;5114268;28;20419;-84
2021/01/08 11:26:53;;;;;;;5.47;3.57;;;1.80;99.90;;;;;;5114509;28;20229;-84
2021/01/08 11:29:19;;;;;;;8.10;4.23;;;1.60;99.90;;;;;;5113897;28;20181;-85
2021/01/08 11:31:44;;;;;;;6.63;5.07;;;1.20;99.90;;;;;;5113664;28;20216;-82
2021/01/08 11:34:10;;;;;;;9.50;5.90;;;1.60;99.90;;;;;;5114030;28;20268;-84
2021/01/08 11:36:37;;;;;;;3.47;3.17;;;1.20;99.90;;;;;;5114294;28;20178;-84
2021/01/08 11:39:03;;;;;;;7.50;4.90;;;1.10;99.90;;;;;;5114009;28;20173;-84
2021/01/08 11:41:28;;;;;;;3.53;2.93;;;1.60;99.90;;;;;;5114789;28;20439;-84
2021/01/08 11:43:54;;;;;;;6.13;3.47;;;1.50;99.90;;;;;;5114102;28;20775;-83
2021/01/08 11:46:23;;;;;;;3.67;2.97;;;1.50;99.90;;;;;;5115175;28;20663;-86
2021/01/08 11:48:52;;;;;;;4.90;3.97;;;1.60;99.90;;;;;;5113711;28;20244;-84
2021/01/08 11:51:24;;;;;;;9.63;7.53;;;1.70;99.90;;;;;;5113445;28;20491;-85
2021/01/08 11:53:51;;;;;;;2.83;2.50;;;1.40;99.90;;;;;;5114825;28;20415;-85
2021/01/08 11:56:17;;;;;;;7.60;5.80;;;1.40;99.90;;;;;;5113649;28;20404;-85
2021/01/08 11:58:44;;;;;;;7.93;4.90;;;1.50;99.90;;;;;;5114422;28;20422;-83
2021/01/08 12:01:11;;;;;;;4.20;3.30;;;1.00;99.90;;;;;;5114322;28;20178;-87
2021/01/08 12:03:38;;;;;;;3.80;3.33;;;1.40;99.90;;;;;;5113528;28;20418;-84
2021/01/08 12:06:04;;;;;;;1.93;1.80;;;1.30;99.90;;;;;;5114454;28;20878;-85
2021/01/08 12:08:31;;;;;;;5.13;4.20;;;1.40;99.90;;;;;;5113493;28;20555;-87
2021/01/08 12:10:58;;;;;;;6.63;4.80;;;0.80;99.90;;;;;;5113179;28;20463;-85
2021/01/08 12:13:24;;;;;;;10.97;10.10;;;0.90;99.90;;;;;;5112928;28;20873;-84
2021/01/08 12:15:49;;;;;;;5.20;3.37;;;1.10;99.90;;;;;;5113171;28;20560;-85
2021/01/08 12:18:21;;;;;;;3.33;3.03;;;1.30;99.90;;;;;;5114224;28;20165;-84
2021/01/08 12:20:47;;;;;;;2.83;2.60;;;1.40;99.90;;;;;;5113233;28;20170;-84
2021/01/08 12:23:13;;;;;;;6.60;3.90;;;0.90;99.90;;;;;;5113119;28;20772;-85
2021/01/08 12:25:40;;;;;;;5.53;4.33;;;1.20;99.90;;;;;;5114232;28;20170;-84
2021/01/08 12:28:15;;;;;;;4.50;4.10;;;1.70;99.90;;;;;;5115163;28;20492;-83
2021/01/08 12:30:44;;;;;;;4.37;3.83;;;1.40;99.90;;;;;;5114484;28;20424;-84
2021/01/08 12:33:09;;;;;;;4.10;2.90;;;1.60;99.90;;;;;;5113306;28;20480;-83
2021/01/08 12:35:35;;;;;;;4.97;3.20;;;1.30;99.90;;;;;;5112844;28;20424;-83
2021/01/08 12:38:01;;;;;;;7.37;2.80;;;1.60;99.90;;;;;;5112919;28;20174;-83
2021/01/08 12:40:27;;;;;;;6.40;3.70;;;1.50;99.90;;;;;;5114275;28;20262;-83
2021/01/08 12:42:54;;;;;;;1.53;1.43;;;1.30;99.90;;;;;;5113031;28;20664;-83
2021/01/08 12:45:21;;;;;;;6.03;3.87;;;1.40;99.90;;;;;;5112563;28;20485;-83
2021/01/08 12:47:48;;;;;;;8.00;5.10;;;1.50;99.90;;;;;;5112723;28;20492;-83
2021/01/08 12:50:14;;;;;;;6.13;3.73;;;1.20;99.90;;;;;;5113088;28;20510;-83
2021/01/08 12:52:40;;;;;;;9.67;5.13;;;1.30;99.90;;;;;;5113609;28;20475;-83
2021/01/08 12:55:06;;;;;;;5.93;3.83;;;1.60;99.90;;;;;;5113069;28;20456;-84
2021/01/08 12:57:32;;;;;;;4.70;3.93;;;1.60;99.90;;;;;;5114224;28;20178;-83
2021/01/08 12:59:58;;;;;;;6.73;5.47;;;1.60;99.90;;;;;;5113111;28;20779;-81